SHT21B EGJB-EGLL
Flight info
| Callsign | SHT21B |
|---|---|
| Flight time | 0h 33m |
| Altitude | 19000 |
| Route | ORIST L982 ROXOG |
| Aircraft | A319/M-SDE3FGHIRWY/LB1 |
Departure
| Time | 2026-05-04 09:49 |
|---|---|
| Airport | Guernsey Airport (EGJB) |
Arrival
| Time | 2026-05-04 10:22 |
|---|---|
| Airport | London Heathrow Airport (EGLL) |
| Time | Latitude | Longitude | Altitude | Speed | Heading |
|---|---|---|---|---|---|
| 2026-05-04 09:29 | 49.43256 | -2.59621 | 355 ft | 0 kts | 178° |
| 2026-05-04 09:37 | 49.43263 | -2.59622 | 355 ft | 4 kts | 178° |
| 2026-05-04 09:38 | 49.43290 | -2.59624 | 351 ft | 4 kts | 174° |
| 2026-05-04 09:38 | 49.43317 | -2.59629 | 348 ft | 4 kts | 169° |
| 2026-05-04 09:38 | 49.43342 | -2.59640 | 355 ft | 4 kts | 153° |
| 2026-05-04 09:38 | 49.43361 | -2.59662 | 353 ft | 4 kts | 100° |
| 2026-05-04 09:39 | 49.43361 | -2.59676 | 352 ft | 1 kts | 88° |
| 2026-05-04 09:40 | 49.43361 | -2.59674 | 352 ft | 1 kts | 88° |
| 2026-05-04 09:41 | 49.43350 | -2.59660 | 354 ft | 3 kts | 160° |
| 2026-05-04 09:42 | 49.43330 | -2.60327 | 336 ft | 12 kts | 267° |
| 2026-05-04 09:43 | 49.43325 | -2.60474 | 332 ft | 16 kts | 267° |
| 2026-05-04 09:43 | 49.43322 | -2.60586 | 331 ft | 12 kts | 270° |
| 2026-05-04 09:43 | 49.43336 | -2.60714 | 328 ft | 10 kts | 281° |
| 2026-05-04 09:43 | 49.43353 | -2.60840 | 325 ft | 9 kts | 281° |
| 2026-05-04 09:44 | 49.43364 | -2.60966 | 322 ft | 14 kts | 269° |
| 2026-05-04 09:44 | 49.43361 | -2.61092 | 319 ft | 14 kts | 268° |
| 2026-05-04 09:44 | 49.43358 | -2.61183 | 317 ft | 2 kts | 267° |
| 2026-05-04 09:46 | 49.43358 | -2.61226 | 316 ft | 2 kts | 271° |
| 2026-05-04 09:46 | 49.43369 | -2.61269 | 314 ft | 7 kts | 300° |
| 2026-05-04 09:46 | 49.43411 | -2.61341 | 313 ft | 11 kts | 322° |
| 2026-05-04 09:47 | 49.43461 | -2.61349 | 313 ft | 5 kts | 38° |
| 2026-05-04 09:47 | 49.43468 | -2.61292 | 314 ft | 6 kts | 86° |
| 2026-05-04 09:49 | 49.43740 | -2.51552 | 2798 ft | 205 kts | 86° |
| 2026-05-04 09:49 | 49.44281 | -2.49478 | 3452 ft | 219 kts | 48° |
| 2026-05-04 09:49 | 49.45587 | -2.48253 | 3893 ft | 227 kts | 18° |
| 2026-05-04 09:51 | 49.55862 | -2.44473 | 7168 ft | 281 kts | 14° |
| 2026-05-04 09:51 | 49.57787 | -2.43752 | 8101 ft | 286 kts | 14° |
| 2026-05-04 09:51 | 49.59738 | -2.43011 | 9032 ft | 291 kts | 15° |
| 2026-05-04 09:51 | 49.61694 | -2.42257 | 9943 ft | 295 kts | 15° |
| 2026-05-04 09:52 | 49.63706 | -2.41480 | 10752 ft | 301 kts | 15° |
| 2026-05-04 09:52 | 49.65762 | -2.40691 | 11545 ft | 306 kts | 15° |
| 2026-05-04 09:52 | 49.67827 | -2.39878 | 12313 ft | 312 kts | 18° |
| 2026-05-04 09:52 | 49.69831 | -2.38524 | 13073 ft | 316 kts | 33° |
| 2026-05-04 09:53 | 49.71627 | -2.36439 | 13476 ft | 333 kts | 47° |
| 2026-05-04 09:53 | 49.73075 | -2.33648 | 14318 ft | 326 kts | 59° |
| 2026-05-04 09:53 | 49.74406 | -2.30664 | 14570 ft | 349 kts | 55° |
| 2026-05-04 09:53 | 49.75998 | -2.27696 | 14926 ft | 365 kts | 50° |
| 2026-05-04 09:54 | 49.77706 | -2.24805 | 15526 ft | 370 kts | 49° |
| 2026-05-04 09:54 | 49.79465 | -2.21892 | 16276 ft | 371 kts | 49° |
| 2026-05-04 09:54 | 49.81219 | -2.18930 | 16997 ft | 373 kts | 50° |
| 2026-05-04 09:54 | 49.82954 | -2.15905 | 17707 ft | 376 kts | 51° |
| 2026-05-04 09:55 | 49.84667 | -2.12829 | 18394 ft | 378 kts | 52° |
| 2026-05-04 09:55 | 49.86373 | -2.09701 | 18857 ft | 382 kts | 52° |
| 2026-05-04 09:55 | 49.88084 | -2.06539 | 18994 ft | 383 kts | 52° |
| 2026-05-04 09:55 | 49.89800 | -2.03352 | 19028 ft | 384 kts | 52° |
| 2026-05-04 09:56 | 49.91493 | -2.00210 | 19028 ft | 384 kts | 52° |
| 2026-05-04 09:56 | 49.93233 | -1.96993 | 19027 ft | 384 kts | 52° |
| 2026-05-04 09:56 | 49.94932 | -1.93856 | 19027 ft | 384 kts | 52° |
| 2026-05-04 09:56 | 49.96654 | -1.90673 | 19026 ft | 385 kts | 52° |
| 2026-05-04 09:57 | 49.98389 | -1.87495 | 19027 ft | 386 kts | 50° |
| 2026-05-04 09:57 | 50.00366 | -1.84652 | 19026 ft | 389 kts | 39° |
| 2026-05-04 09:57 | 50.02657 | -1.82388 | 19025 ft | 390 kts | 28° |
| 2026-05-04 09:57 | 50.05083 | -1.80481 | 19019 ft | 390 kts | 28° |
| 2026-05-04 09:58 | 50.07482 | -1.78591 | 19018 ft | 390 kts | 28° |
| 2026-05-04 09:58 | 50.09905 | -1.76679 | 19020 ft | 390 kts | 28° |
| 2026-05-04 09:58 | 50.12285 | -1.74650 | 19021 ft | 389 kts | 34° |
| 2026-05-04 10:00 | 50.27089 | -1.56351 | 19016 ft | 390 kts | 27° |
| 2026-05-04 10:00 | 50.29609 | -1.54771 | 19017 ft | 391 kts | 18° |
| 2026-05-04 10:02 | 50.47809 | -1.45834 | 19021 ft | 392 kts | 18° |
| 2026-05-04 10:04 | 50.65018 | -1.33253 | 19022 ft | 391 kts | 29° |
| 2026-05-04 10:04 | 50.67407 | -1.31201 | 19015 ft | 391 kts | 29° |
| 2026-05-04 10:04 | 50.69770 | -1.29163 | 19005 ft | 390 kts | 29° |
| 2026-05-04 10:04 | 50.72122 | -1.27132 | 18795 ft | 381 kts | 29° |
| 2026-05-04 10:05 | 50.74431 | -1.25136 | 18555 ft | 375 kts | 29° |
| 2026-05-04 10:05 | 50.76707 | -1.23144 | 18311 ft | 373 kts | 31° |
| 2026-05-04 10:05 | 50.78911 | -1.21038 | 17932 ft | 366 kts | 33° |
| 2026-05-04 10:05 | 50.81019 | -1.18882 | 17462 ft | 363 kts | 34° |
| 2026-05-04 10:06 | 50.83106 | -1.16672 | 16998 ft | 359 kts | 34° |
| 2026-05-04 10:06 | 50.85172 | -1.14465 | 16528 ft | 356 kts | 34° |
| 2026-05-04 10:06 | 50.87220 | -1.12289 | 16065 ft | 353 kts | 34° |
| 2026-05-04 10:08 | 50.99289 | -0.99731 | 13248 ft | 339 kts | 34° |
| 2026-05-04 10:08 | 51.01103 | -0.97392 | 12839 ft | 335 kts | 46° |
| 2026-05-04 10:08 | 51.02617 | -0.94574 | 12584 ft | 340 kts | 52° |
| 2026-05-04 10:08 | 51.04141 | -0.91676 | 12057 ft | 339 kts | 49° |
| 2026-05-04 10:09 | 51.05716 | -0.88900 | 11707 ft | 336 kts | 48° |
| 2026-05-04 10:09 | 51.07306 | -0.86176 | 11327 ft | 334 kts | 47° |
| 2026-05-04 10:09 | 51.08884 | -0.83475 | 10950 ft | 332 kts | 47° |
| 2026-05-04 10:09 | 51.10441 | -0.80778 | 10575 ft | 330 kts | 48° |
| 2026-05-04 10:10 | 51.11971 | -0.78088 | 10292 ft | 323 kts | 49° |
| 2026-05-04 10:10 | 51.13427 | -0.75500 | 10172 ft | 311 kts | 49° |
| 2026-05-04 10:10 | 51.14845 | -0.72960 | 9981 ft | 302 kts | 49° |
| 2026-05-04 10:10 | 51.16225 | -0.70483 | 9782 ft | 297 kts | 49° |
| 2026-05-04 10:11 | 51.17605 | -0.68004 | 9465 ft | 296 kts | 49° |
| 2026-05-04 10:11 | 51.18969 | -0.65551 | 9197 ft | 294 kts | 49° |
| 2026-05-04 10:11 | 51.20322 | -0.63112 | 8874 ft | 292 kts | 49° |
| 2026-05-04 10:11 | 51.21667 | -0.60689 | 8561 ft | 290 kts | 49° |
| 2026-05-04 10:12 | 51.22982 | -0.58316 | 8247 ft | 288 kts | 49° |
| 2026-05-04 10:12 | 51.24303 | -0.55928 | 7932 ft | 286 kts | 49° |
| 2026-05-04 10:12 | 51.25621 | -0.53554 | 7609 ft | 285 kts | 49° |
| 2026-05-04 10:12 | 51.26897 | -0.51143 | 7312 ft | 282 kts | 57° |
| 2026-05-04 10:13 | 51.27605 | -0.48270 | 7018 ft | 278 kts | 78° |
| 2026-05-04 10:13 | 51.27979 | -0.45248 | 6722 ft | 277 kts | 81° |
| 2026-05-04 10:13 | 51.28316 | -0.42232 | 6429 ft | 275 kts | 81° |
| 2026-05-04 10:13 | 51.28640 | -0.39234 | 6118 ft | 273 kts | 81° |
| 2026-05-04 10:14 | 51.28961 | -0.36253 | 5803 ft | 271 kts | 81° |
| 2026-05-04 10:14 | 51.29274 | -0.33284 | 5500 ft | 270 kts | 81° |
| 2026-05-04 10:16 | 51.34270 | -0.16580 | 3459 ft | 261 kts | 4° |
| 2026-05-04 10:16 | 51.36076 | -0.16487 | 3157 ft | 258 kts | 2° |
| 2026-05-04 10:16 | 51.37257 | -0.16463 | 3037 ft | 250 kts | 1° |
| 2026-05-04 10:16 | 51.38930 | -0.16440 | 3016 ft | 233 kts | 1° |
| 2026-05-04 10:17 | 51.40475 | -0.16423 | 3020 ft | 210 kts | 1° |
| 2026-05-04 10:17 | 51.41885 | -0.16411 | 3015 ft | 196 kts | 1° |
| 2026-05-04 10:19 | 51.47801 | -0.24881 | 2410 ft | 173 kts | 270° |
| 2026-05-04 10:19 | 51.47798 | -0.26802 | 2178 ft | 172 kts | 270° |
| 2026-05-04 10:19 | 51.47795 | -0.28723 | 1946 ft | 170 kts | 271° |
| 2026-05-04 10:19 | 51.47792 | -0.30620 | 1695 ft | 170 kts | 272° |
| 2026-05-04 10:20 | 51.47789 | -0.32554 | 1517 ft | 171 kts | 272° |
| 2026-05-04 10:20 | 51.47786 | -0.34412 | 1259 ft | 165 kts | 271° |
| 2026-05-04 10:20 | 51.47782 | -0.36176 | 1039 ft | 150 kts | 270° |
| 2026-05-04 10:20 | 51.47778 | -0.37782 | 828 ft | 140 kts | 271° |
| 2026-05-04 10:21 | 51.47752 | -0.39320 | 656 ft | 137 kts | 272° |
| 2026-05-04 10:21 | 51.47766 | -0.40826 | 460 ft | 133 kts | 275° |
| 2026-05-04 10:21 | 51.47767 | -0.42303 | 272 ft | 132 kts | 271° |
| 2026-05-04 10:21 | 51.47761 | -0.43766 | 109 ft | 129 kts | 271° |
| 2026-05-04 10:22 | 51.47757 | -0.45697 | 84 ft | 31 kts | 268° |
| 2026-05-04 10:22 | 51.47664 | -0.45950 | 89 ft | 20 kts | 221° |
| 2026-05-04 10:22 | 51.47594 | -0.46118 | 87 ft | 20 kts | 266° |
| 2026-05-04 10:23 | 51.47593 | -0.46358 | 86 ft | 23 kts | 270° |
| 2026-05-04 10:23 | 51.47591 | -0.46615 | 86 ft | 20 kts | 269° |
| 2026-05-04 10:25 | 51.47577 | -0.48254 | 86 ft | 20 kts | 269° |
| 2026-05-04 10:25 | 51.47576 | -0.48417 | 86 ft | 10 kts | 269° |
| 2026-05-04 10:25 | 51.47524 | -0.48476 | 86 ft | 10 kts | 182° |
| 2026-05-04 10:25 | 51.47487 | -0.48567 | 88 ft | 12 kts | 268° |
| 2026-05-04 10:26 | 51.47486 | -0.48683 | 88 ft | 10 kts | 270° |
| 2026-05-04 10:26 | 51.47467 | -0.48756 | 89 ft | 6 kts | 198° |
| 2026-05-04 10:26 | 51.47432 | -0.48758 | 86 ft | 4 kts | 180° |
| 2026-05-04 10:26 | 51.47415 | -0.48758 | 86 ft | 2 kts | 179° |
| 2026-05-04 10:27 | 51.47404 | -0.48757 | 86 ft | 1 kts | 179° |
| 2026-05-04 10:27 | 51.47399 | -0.48757 | 86 ft | 0 kts | 179° |